Aeroporto :
LOGIN :

Iscrizione | Disclaimer

   EN    FR    IT 

 










Sommario :    VFR   VFR Marginale   IFR   IFR Intensivo   IFR Molto Intensivo
Visibilità : 
Base nubi : 
>= 8 km
>= 3000ft
5 / 8 km
1000 / 3000 ft
1500m / 5 km
500 / 1000 ft
800 / 1500m
200 / 500 ft
< 800m
< 200 ft
Simboli :   Temporali  Nebbia  Neve Forte  Precipitazioni Forti  Vento > 20 kt
SIGMETs :   Varie  Temporali  Ghiacco  Turbolenza  Onda orograficha  Ceneri Vulcaniche







- Altitudine del aeroporto : 1302 ft
- Codice IATA : GNB
- Carte del aeroporto


LFLS - Grenoble / St. Geoirs

ULTIMO METAR :
  • 191430Z AUTO VRB03KT CAVOK 23/05 Q1024 TEMPO FEW065TCU

METARs OBSOLETI :
  • 191400Z AUTO 20004KT 130V270 CAVOK 23/05 Q1024 TEMPO FEW065TCU
  • 191330Z AUTO VRB02KT CAVOK 23/05 Q1025 TEMPO FEW065TCU
  • 191300Z AUTO VRB02KT CAVOK 22/06 Q1025 NOSIG
  • 191230Z AUTO VRB03KT CAVOK 21/06 Q1025 NOSIG
  • 191200Z AUTO 34004KT 310V060 CAVOK 21/06 Q1025 NOSIG

TAF TAF LFLS
Valido dal 19 a 15 ore il 20 a 15 ore UTC


191400Z 1915/2015 08006KT CAVOK
TEMPO 1915/1917 FEW065TCU
ATIS : +33 4 76 65 55 89
Nessun NOTAM noto per questo aeroporto.
2 SIGMETs conosciuti per la FIR Marseille (LFMM) :
 
Turbolenza severa
LFMM SIGMET 5 VALID 191300/191700 LFPW
LFMM MARSEILLE FIR/UIR SEV TURB FCST WI N4230 E00230 - N4415 E00245 - N4430 E00315 - N4415 E00345 - N4230 E00230 SFC/FL060 STNR NC=
Turbolenza severa
LFMM SIGMET 4 VALID 191100/191500 LFPW
LFMM MARSEILLE FIR/UIR SEV TURB FCST WI N4345 E00730 - N4345 E00745 - N4245 E00645 - N4245 E00515 - N4330 E00530 - N4345 E00730 SFC/FL060 STNR WKN=



MetMap, La meteo Aeronautica in un colpo d'occhio ! - Copyright ORBIFLY Dicembre 2007 - Disclaimer

ORBIFLY MET'MAP TEAM :

Programmazione e sviluppo : Alexandra Zaïnal
Concezione e sviluppo : Baudouin d'Aumeries
Co-Programmazione e sviluppo : Marc-Olivier Méhu
Supporto tecnico e logistico : Manuel Goepfert
Aiuto per la traduzione : Arnaldo La Scala

Contatto : metmap@orbifly.com




FONTI E CREDITI :

   NOAA